NCAR-RAP Real-Time Weather Data

Output produced by METARs form (14 October 2019  23:36 UTC)
found at http://weather.rap.ucar.edu/surface/
 
KTOP 142253Z 14012G20KT 10SM CLR 22/08 A2982 RMK AO2 SLP097 T02220083
KTOP 142153Z 16014KT 10SM CLR 24/08 A2985 RMK AO2 SLP106 T02390078